Time;durP1;ratioP1;P1;durP2;ratioP2;P2;SDS_P1;SDS_P2;PMS_P1;PMS_P2;Temp;Humidity;BMP_temperature;BMP_pressure;BME280_temperature;BME280_humidity;BME280_pressure;Samples;Min_cycle;Max_cycle;Signal;HPM_P1;HPM_P2
2021/08/24 00:00:45;;;;;;;3.00;2.80;;;17.40;99.90;;;;;;4962984;29;20179;-82
2021/08/24 00:03:10;;;;;;;2.80;2.60;;;17.40;99.90;;;;;;4962457;29;20208;-82
2021/08/24 00:05:36;;;;;;;3.23;2.87;;;17.40;99.90;;;;;;4944901;29;20275;-82
2021/08/24 00:08:03;;;;;;;3.50;3.10;;;17.30;99.90;;;;;;4962338;29;20256;-82
2021/08/24 00:10:36;;;;;;;4.27;3.53;;;17.30;99.90;;;;;;4945103;29;20208;-82
2021/08/24 00:13:02;;;;;;;4.33;2.90;;;17.20;99.90;;;;;;4962038;29;20193;-82
2021/08/24 00:15:28;;;;;;;3.47;3.17;;;17.20;99.90;;;;;;4963228;29;20166;-82
2021/08/24 00:17:55;;;;;;;3.40;3.20;;;17.30;99.90;;;;;;4945562;29;20534;-82
2021/08/24 00:20:22;;;;;;;3.47;3.20;;;17.20;99.90;;;;;;4945785;29;20185;-82
2021/08/24 00:22:48;;;;;;;2.90;2.70;;;17.20;99.90;;;;;;4962812;29;20240;-83
2021/08/24 00:25:14;;;;;;;2.83;2.63;;;17.30;99.90;;;;;;4944869;29;20184;-82
2021/08/24 00:27:40;;;;;;;3.80;3.50;;;17.30;99.90;;;;;;4962192;29;20184;-83
2021/08/24 00:30:07;;;;;;;5.83;5.33;;;17.30;99.90;;;;;;4956926;29;20204;-82
2021/08/24 00:32:34;;;;;;;5.90;5.50;;;17.40;99.90;;;;;;4993716;23;20690;-80
2021/08/24 00:34:59;;;;;;;5.27;4.87;;;17.30;99.90;;;;;;5005947;28;20160;-79
2021/08/24 00:37:25;;;;;;;5.20;4.80;;;17.40;99.90;;;;;;4989459;28;20203;-79
2021/08/24 00:39:51;;;;;;;4.97;4.57;;;17.30;99.90;;;;;;4990186;28;20214;-79
2021/08/24 00:42:18;;;;;;;4.93;4.63;;;17.30;99.90;;;;;;5008002;28;20198;-80
2021/08/24 00:44:45;;;;;;;4.77;4.43;;;17.30;99.90;;;;;;4990457;28;20234;-79
2021/08/24 00:47:14;;;;;;;4.20;3.90;;;17.30;99.90;;;;;;4989475;28;20191;-80
2021/08/24 00:49:39;;;;;;;4.07;3.67;;;17.20;99.90;;;;;;5006788;28;20199;-79
2021/08/24 00:52:15;;;;;;;3.60;3.40;;;17.30;99.90;;;;;;4988711;28;20203;-79
2021/08/24 00:54:42;;;;;;;4.00;2.90;;;17.30;99.90;;;;;;4989624;28;20163;-79
2021/08/24 00:57:12;;;;;;;3.37;3.07;;;17.20;99.90;;;;;;5006347;28;20201;-79
2021/08/24 00:59:38;;;;;;;2.73;2.53;;;17.20;99.90;;;;;;5006668;28;20177;-80
2021/08/24 01:02:07;;;;;;;2.50;2.30;;;17.10;99.90;;;;;;5006228;28;20255;-79
2021/08/24 01:04:34;;;;;;;2.90;2.60;;;17.00;99.90;;;;;;5006348;28;20179;-79
2021/08/24 01:07:07;;;;;;;2.23;2.03;;;17.00;99.90;;;;;;5006074;28;20214;-79
2021/08/24 01:09:42;;;;;;;2.03;1.83;;;17.00;99.90;;;;;;5006851;28;20195;-79
2021/08/24 01:12:20;;;;;;;7.93;2.00;;;16.90;99.90;;;;;;5007182;28;20174;-79
2021/08/24 01:14:52;;;;;;;2.67;1.90;;;17.00;99.90;;;;;;4989145;28;20164;-79
2021/08/24 01:17:28;;;;;;;2.37;2.17;;;16.90;99.90;;;;;;5006219;28;20191;-79
2021/08/24 01:20:27;;;;;;;2.00;1.57;;;16.90;99.90;;;;;;5006412;28;20163;-79
2021/08/24 01:23:21;;;;;;;1.70;1.60;;;16.80;99.90;;;;;;5006763;28;20214;-79
2021/08/24 01:26:06;;;;;;;2.20;1.73;;;16.80;99.90;;;;;;5006769;28;20662;-80
2021/08/24 01:28:50;;;;;;;1.70;1.60;;;16.60;99.90;;;;;;4989473;28;20174;-78
2021/08/24 01:31:31;;;;;;;1.93;1.30;;;16.60;99.90;;;;;;4988585;28;20689;-79
2021/08/24 01:34:45;;;;;;;3.63;1.50;;;16.50;99.90;;;;;;5005935;28;20254;-79
2021/08/24 01:37:19;;;;;;;1.40;1.30;;;16.50;99.90;;;;;;4954684;28;20193;-79
2021/08/24 01:39:52;;;;;;;1.60;1.50;;;16.50;99.90;;;;;;5005786;28;20527;-79
2021/08/24 01:42:22;;;;;;;2.10;1.70;;;16.40;99.90;;;;;;5006507;28;20163;-80
2021/08/24 01:45:09;;;;;;;1.50;1.33;;;16.40;99.90;;;;;;4988424;28;20270;-79
2021/08/24 01:47:47;;;;;;;2.97;1.50;;;16.30;99.90;;;;;;4988760;28;20244;-79
2021/08/24 01:50:45;;;;;;;1.60;1.50;;;16.30;99.90;;;;;;4992610;28;20196;-79
2021/08/24 01:53:22;;;;;;;2.37;1.67;;;16.30;99.90;;;;;;5000959;28;20200;-79
2021/08/24 01:55:55;;;;;;;1.83;1.50;;;16.30;99.90;;;;;;5004131;28;20258;-79
2021/08/24 01:58:29;;;;;;;2.00;1.90;;;16.30;99.90;;;;;;5005456;28;20172;-79
2021/08/24 02:00:56;;;;;;;4.30;1.70;;;16.20;99.90;;;;;;5003327;28;20179;-79
2021/08/24 02:03:32;;;;;;;2.20;2.00;;;16.20;99.90;;;;;;5005708;28;20229;-80
2021/08/24 02:06:03;;;;;;;2.20;1.77;;;16.20;99.90;;;;;;5008573;28;20156;-79
2021/08/24 02:08:32;;;;;;;2.10;1.57;;;16.20;99.90;;;;;;5007737;28;20172;-78
2021/08/24 02:11:01;;;;;;;2.93;1.97;;;16.20;99.90;;;;;;5009254;28;20250;-79
2021/08/24 02:13:33;;;;;;;1.90;1.80;;;16.20;99.90;;;;;;5009452;28;20193;-79
2021/08/24 02:16:02;;;;;;;3.00;2.10;;;16.20;99.90;;;;;;5009059;28;20227;-79
2021/08/24 02:18:36;;;;;;;1.83;1.73;;;16.20;99.90;;;;;;5008775;28;20171;-79
2021/08/24 02:21:28;;;;;;;3.13;2.07;;;16.00;99.90;;;;;;5008622;28;20159;-79
2021/08/24 02:23:58;;;;;;;4.17;1.90;;;15.90;99.90;;;;;;5006765;28;20285;-79
2021/08/24 02:26:27;;;;;;;2.37;2.13;;;15.90;99.90;;;;;;5008146;28;20204;-79
2021/08/24 02:28:56;;;;;;;2.23;1.90;;;15.90;99.90;;;;;;5006998;28;20569;-79
2021/08/24 02:31:37;;;;;;;2.47;1.90;;;15.90;99.90;;;;;;5007510;28;20223;-79
2021/08/24 02:34:17;;;;;;;2.33;2.13;;;15.80;99.90;;;;;;5007410;28;20229;-79
2021/08/24 02:37:10;;;;;;;2.00;1.80;;;15.70;99.90;;;;;;5007956;28;20164;-79
2021/08/24 02:39:41;;;;;;;2.33;1.73;;;15.60;99.90;;;;;;4988497;28;20754;-79
2021/08/24 02:42:12;;;;;;;1.90;1.80;;;15.60;99.90;;;;;;5007785;28;20157;-80
2021/08/24 02:44:43;;;;;;;3.07;1.80;;;15.50;99.90;;;;;;5007073;28;20210;-79
2021/08/24 02:47:09;;;;;;;2.93;1.97;;;15.50;99.90;;;;;;5007954;28;20152;-79
2021/08/24 02:49:36;;;;;;;2.50;2.30;;;15.50;99.90;;;;;;5006669;28;20206;-79
2021/08/24 02:52:08;;;;;;;2.47;1.93;;;15.50;99.90;;;;;;5007352;28;20259;-79
2021/08/24 02:54:40;;;;;;;1.70;1.60;;;15.50;99.90;;;;;;5007079;28;20615;-79
2021/08/24 02:57:06;;;;;;;2.60;1.90;;;15.50;99.90;;;;;;5006767;28;20252;-79
2021/08/24 02:59:33;;;;;;;1.90;1.77;;;15.50;99.90;;;;;;5007289;28;20180;-79
2021/08/24 03:01:59;;;;;;;3.90;2.00;;;15.60;99.90;;;;;;5005606;28;20217;-79
2021/08/24 03:04:25;;;;;;;3.67;2.10;;;15.50;99.90;;;;;;5005338;28;20195;-80
2021/08/24 03:07:02;;;;;;;2.80;1.80;;;15.50;99.90;;;;;;5005731;28;20180;-80
2021/08/24 03:09:32;;;;;;;2.63;2.07;;;15.50;99.90;;;;;;5007461;28;20164;-78
2021/08/24 03:12:25;;;;;;;5.00;2.10;;;15.50;99.90;;;;;;5007222;28;20230;-79
2021/08/24 03:15:04;;;;;;;4.03;1.80;;;15.40;99.90;;;;;;5006144;28;20191;-79
2021/08/24 03:17:38;;;;;;;1.80;1.70;;;15.30;99.90;;;;;;5005476;28;20171;-79
2021/08/24 03:20:08;;;;;;;2.17;1.97;;;15.20;99.90;;;;;;5006767;28;20604;-79
2021/08/24 03:22:34;;;;;;;2.70;2.03;;;15.20;99.90;;;;;;5005235;28;20200;-79
2021/08/24 03:25:01;;;;;;;5.23;2.00;;;15.20;99.90;;;;;;5005061;28;20199;-79
2021/08/24 03:27:27;;;;;;;2.80;1.80;;;15.10;99.90;;;;;;5004913;28;20210;-79
2021/08/24 03:30:05;;;;;;;2.43;1.90;;;15.10;99.90;;;;;;5005956;28;20587;-79
2021/08/24 03:32:30;;;;;;;2.20;1.93;;;15.20;99.90;;;;;;5005816;28;20199;-79
2021/08/24 03:34:56;;;;;;;2.50;1.87;;;15.20;99.90;;;;;;5004452;28;20234;-79
2021/08/24 03:37:21;;;;;;;2.00;1.80;;;15.10;99.90;;;;;;5005207;28;20655;-79
2021/08/24 03:39:47;;;;;;;3.67;1.97;;;15.10;99.90;;;;;;5004937;28;20184;-79
2021/08/24 03:42:13;;;;;;;2.73;1.80;;;14.90;99.90;;;;;;5005123;28;20252;-79
2021/08/24 03:44:39;;;;;;;2.60;2.20;;;15.00;99.90;;;;;;5006467;28;20176;-79
2021/08/24 03:47:04;;;;;;;2.37;2.10;;;15.00;99.90;;;;;;5006447;28;20234;-79
2021/08/24 03:49:30;;;;;;;5.33;1.77;;;15.00;99.90;;;;;;5006076;28;20226;-79
2021/08/24 03:51:56;;;;;;;2.00;1.83;;;15.00;99.90;;;;;;5005002;28;20171;-78
2021/08/24 03:54:21;;;;;;;2.23;2.03;;;14.90;99.90;;;;;;5006236;28;20272;-79
2021/08/24 03:56:47;;;;;;;3.10;1.87;;;14.90;99.90;;;;;;5002960;28;20172;-79
2021/08/24 03:59:13;;;;;;;2.13;1.90;;;14.90;99.90;;;;;;5006436;28;20179;-78
2021/08/24 04:01:38;;;;;;;1.77;1.63;;;14.90;99.90;;;;;;5004450;28;20182;-79
2021/08/24 04:04:04;;;;;;;2.23;2.03;;;15.00;99.90;;;;;;5005986;28;20196;-79
2021/08/24 04:06:30;;;;;;;3.70;2.27;;;15.00;99.90;;;;;;5004834;28;20202;-78
2021/08/24 04:08:55;;;;;;;7.20;2.17;;;15.00;99.90;;;;;;5005363;28;20201;-79
2021/08/24 04:11:21;;;;;;;2.57;2.20;;;15.00;99.90;;;;;;5007610;28;20271;-79
2021/08/24 04:13:46;;;;;;;2.60;2.13;;;14.90;99.90;;;;;;5005624;28;20202;-79
2021/08/24 04:16:13;;;;;;;2.43;2.03;;;14.90;99.90;;;;;;5004467;28;20180;-79
2021/08/24 04:18:41;;;;;;;2.90;2.30;;;14.90;99.90;;;;;;5006317;28;20227;-79
2021/08/24 04:21:11;;;;;;;4.30;2.53;;;;;;;;;;5005292;28;20234;-80
2021/08/24 04:23:37;;;;;;;4.50;2.17;;;14.70;99.90;;;;;;5004802;28;20307;-79
2021/08/24 04:26:04;;;;;;;3.73;2.30;;;14.80;99.90;;;;;;5005684;28;20227;-78
2021/08/24 04:28:29;;;;;;;2.63;2.27;;;14.70;99.90;;;;;;5004940;28;20168;-78
2021/08/24 04:30:56;;;;;;;2.27;2.07;;;14.70;99.90;;;;;;5005803;28;20199;-78
2021/08/24 04:33:22;;;;;;;3.23;2.50;;;14.80;99.90;;;;;;5003581;28;20306;-79
2021/08/24 04:35:57;;;;;;;2.30;2.10;;;14.80;99.90;;;;;;5005769;28;20172;-79
2021/08/24 04:38:22;;;;;;;2.63;2.00;;;14.80;99.90;;;;;;5003629;28;20171;-79
2021/08/24 04:40:49;;;;;;;2.63;2.43;;;14.80;99.90;;;;;;5006056;28;20227;-79
2021/08/24 04:43:16;;;;;;;2.70;2.00;;;14.80;99.90;;;;;;5006151;28;20196;-79
2021/08/24 04:45:42;;;;;;;3.17;2.13;;;14.80;99.90;;;;;;5003829;28;20203;-79
2021/08/24 04:48:08;;;;;;;2.93;2.20;;;14.80;99.90;;;;;;5005830;28;20526;-79
2021/08/24 04:50:35;;;;;;;2.87;2.07;;;14.80;99.90;;;;;;5003687;28;20195;-79
2021/08/24 04:53:00;;;;;;;4.67;2.30;;;14.80;99.90;;;;;;5005179;28;20734;-79
2021/08/24 04:55:26;;;;;;;2.77;2.13;;;14.80;99.90;;;;;;5005363;28;20172;-81
2021/08/24 04:57:52;;;;;;;3.33;2.30;;;14.80;99.90;;;;;;5005517;28;20176;-79
2021/08/24 05:00:17;;;;;;;2.30;2.10;;;14.80;99.90;;;;;;5006322;28;20191;-78
2021/08/24 05:02:43;;;;;;;2.47;2.27;;;14.80;99.90;;;;;;5004209;28;20200;-79
2021/08/24 05:05:09;;;;;;;2.40;2.20;;;14.70;99.90;;;;;;5006137;28;20176;-77
2021/08/24 05:07:35;;;;;;;3.30;2.30;;;14.70;99.90;;;;;;5006514;28;20208;-79
2021/08/24 05:10:03;;;;;;;2.47;2.27;;;14.70;99.90;;;;;;5006765;28;20172;-79
2021/08/24 05:12:30;;;;;;;2.30;2.10;;;14.70;99.90;;;;;;5005922;28;20215;-79
2021/08/24 05:14:55;;;;;;;4.37;2.13;;;14.70;99.90;;;;;;5004811;28;20184;-79
2021/08/24 05:17:24;;;;;;;4.43;2.40;;;14.70;99.90;;;;;;5005504;28;20255;-79
2021/08/24 05:19:50;;;;;;;2.67;2.47;;;14.70;99.90;;;;;;5006211;28;20195;-79
2021/08/24 05:22:15;;;;;;;3.37;2.23;;;14.70;99.90;;;;;;5004824;28;20526;-80
2021/08/24 05:24:41;;;;;;;2.63;2.43;;;14.70;99.90;;;;;;5005630;28;20175;-79
2021/08/24 05:27:07;;;;;;;2.80;2.50;;;14.80;99.90;;;;;;5007034;28;20175;-79
2021/08/24 05:29:34;;;;;;;2.30;2.10;;;14.80;99.90;;;;;;5004919;28;20175;-78
2021/08/24 05:32:00;;;;;;;2.50;2.30;;;14.90;99.90;;;;;;5006262;28;20179;-80
2021/08/24 05:34:25;;;;;;;2.83;2.43;;;14.80;99.90;;;;;;5005602;28;20270;-80
2021/08/24 05:36:55;;;;;;;3.87;2.43;;;14.80;99.90;;;;;;5006448;28;20195;-81
2021/08/24 05:39:24;;;;;;;2.93;2.20;;;14.80;99.90;;;;;;5009433;28;20703;-79
2021/08/24 05:41:50;;;;;;;3.40;2.60;;;14.80;99.90;;;;;;5010695;28;20231;-80
2021/08/24 05:44:18;;;;;;;3.10;2.80;;;14.80;99.90;;;;;;5010827;28;20218;-80
2021/08/24 05:46:44;;;;;;;3.80;2.50;;;14.80;99.90;;;;;;5011314;28;20176;-79
2021/08/24 05:49:10;;;;;;;4.17;2.33;;;14.80;99.90;;;;;;5010561;28;20172;-80
2021/08/24 05:51:37;;;;;;;4.20;3.07;;;14.80;99.90;;;;;;5010867;28;20231;-79
2021/08/24 05:54:12;;;;;;;3.37;2.47;;;14.70;99.90;;;;;;5008653;28;20202;-80
2021/08/24 05:56:40;;;;;;;2.60;2.40;;;14.70;99.90;;;;;;5009402;28;20167;-79
2021/08/24 05:59:06;;;;;;;3.57;2.87;;;14.80;99.90;;;;;;5010214;28;20265;-80
2021/08/24 06:01:32;;;;;;;3.33;3.03;;;14.80;99.90;;;;;;5007201;28;20211;-80
2021/08/24 06:03:59;;;;;;;3.60;3.30;;;14.70;99.90;;;;;;5012646;28;20545;-79
2021/08/24 06:06:28;;;;;;;3.60;3.10;;;14.70;99.90;;;;;;5012269;28;20172;-79
2021/08/24 06:08:55;;;;;;;3.80;3.23;;;14.70;99.90;;;;;;5012452;28;20168;-80
2021/08/24 06:11:29;;;;;;;5.87;3.23;;;14.70;99.90;;;;;;5010710;28;20180;-79
2021/08/24 06:13:56;;;;;;;3.20;2.90;;;14.60;99.90;;;;;;5012612;28;20216;-80
2021/08/24 06:16:22;;;;;;;3.83;2.90;;;14.60;99.90;;;;;;5011126;28;20206;-80
2021/08/24 06:18:47;;;;;;;3.13;2.83;;;14.60;99.90;;;;;;5011919;28;20649;-80
2021/08/24 06:21:15;;;;;;;3.17;2.87;;;14.60;99.90;;;;;;5011590;28;20200;-81
2021/08/24 06:23:41;;;;;;;4.60;3.53;;;14.60;99.90;;;;;;5011258;28;20199;-80
2021/08/24 06:26:10;;;;;;;6.40;3.20;;;14.60;99.90;;;;;;5010429;28;20202;-80
2021/08/24 06:28:37;;;;;;;5.53;3.00;;;14.60;99.90;;;;;;5008810;28;20202;-80
2021/08/24 06:31:04;;;;;;;3.87;3.13;;;14.60;99.90;;;;;;5009504;28;20560;-80
2021/08/24 06:33:35;;;;;;;5.33;3.20;;;14.60;99.90;;;;;;5007234;28;20285;-82
2021/08/24 06:36:01;;;;;;;3.03;2.33;;;14.60;99.90;;;;;;5001649;28;20256;-82
2021/08/24 06:38:31;;;;;;;3.83;2.73;;;14.70;99.90;;;;;;5001733;28;20247;-82
2021/08/24 06:40:58;;;;;;;4.10;2.70;;;14.70;99.90;;;;;;5007665;28;20705;-79
2021/08/24 06:43:27;;;;;;;3.00;2.70;;;14.60;99.90;;;;;;5010379;28;20554;-79
2021/08/24 06:45:53;;;;;;;4.57;2.97;;;14.60;99.90;;;;;;5009727;28;20175;-78
2021/08/24 06:48:19;;;;;;;3.47;3.10;;;14.60;99.90;;;;;;5008099;28;20172;-81
2021/08/24 06:50:45;;;;;;;3.10;2.80;;;14.60;99.90;;;;;;5007841;28;20210;-79
2021/08/24 06:53:15;;;;;;;3.97;2.87;;;14.60;99.90;;;;;;5008372;28;20201;-80
2021/08/24 06:55:40;;;;;;;6.47;2.93;;;14.60;99.90;;;;;;5009007;28;20187;-80
2021/08/24 06:58:08;;;;;;;5.50;3.10;;;14.50;99.90;;;;;;5009673;28;20195;-80
2021/08/24 07:00:35;;;;;;;3.20;2.77;;;14.50;99.90;;;;;;5008209;28;20223;-80
2021/08/24 07:03:01;;;;;;;4.27;3.00;;;14.60;99.90;;;;;;5010593;28;20189;-80
2021/08/24 07:05:29;;;;;;;3.90;3.20;;;14.50;99.90;;;;;;5008760;28;20176;-80
2021/08/24 07:07:55;;;;;;;3.50;3.20;;;14.60;99.90;;;;;;5005647;28;20171;-79
2021/08/24 07:10:24;;;;;;;4.87;3.10;;;14.50;99.90;;;;;;5006347;28;20548;-81
2021/08/24 07:12:51;;;;;;;4.70;3.50;;;14.50;99.90;;;;;;5006930;28;20200;-80
2021/08/24 07:15:20;;;;;;;4.30;3.40;;;14.50;99.90;;;;;;5004470;28;20230;-79
2021/08/24 07:17:56;;;;;;;4.30;3.50;;;14.50;99.90;;;;;;5005769;28;20669;-80
2021/08/24 07:20:26;;;;;;;5.30;3.30;;;14.40;99.90;;;;;;5005650;28;20250;-80
2021/08/24 07:22:56;;;;;;;4.67;3.60;;;14.40;99.90;;;;;;5004587;28;20192;-80
2021/08/24 07:25:30;;;;;;;4.07;3.40;;;14.50;99.90;;;;;;5005767;28;20175;-80
2021/08/24 07:28:11;;;;;;;4.30;3.90;;;14.50;99.90;;;;;;5008158;28;20151;-80
2021/08/24 07:30:41;;;;;;;5.13;3.53;;;14.50;99.90;;;;;;5007524;28;20631;-80
2021/08/24 07:33:14;;;;;;;5.27;3.53;;;14.60;99.90;;;;;;4989241;28;20215;-79
2021/08/24 07:35:40;;;;;;;3.47;3.17;;;14.50;99.90;;;;;;5004995;28;20187;-80
2021/08/24 07:38:09;;;;;;;5.50;4.07;;;14.70;99.90;;;;;;5007439;28;20183;-80
2021/08/24 07:40:34;;;;;;;4.57;3.70;;;14.80;99.90;;;;;;5007283;28;20223;-80
2021/08/24 07:43:04;;;;;;;5.03;3.57;;;14.90;99.90;;;;;;5005676;28;20197;-80
2021/08/24 07:45:36;;;;;;;3.57;3.17;;;15.00;99.90;;;;;;5009673;28;20264;-79
2021/08/24 07:48:23;;;;;;;4.33;3.40;;;15.10;99.90;;;;;;5010381;28;20682;-80
2021/08/24 07:50:52;;;;;;;5.27;3.50;;;15.10;99.90;;;;;;5008394;28;20190;-80
2021/08/24 07:53:19;;;;;;;5.23;3.23;;;15.20;99.90;;;;;;5003193;28;20222;-79
2021/08/24 07:55:46;;;;;;;4.17;3.57;;;15.40;99.90;;;;;;5008650;28;20168;-79
2021/08/24 07:58:11;;;;;;;3.63;3.00;;;15.50;99.90;;;;;;5008822;28;20180;-79
2021/08/24 08:00:41;;;;;;;4.43;2.70;;;15.60;99.90;;;;;;4990588;28;20199;-79
2021/08/24 08:03:06;;;;;;;4.83;3.40;;;15.80;99.90;;;;;;4990996;28;20211;-79
2021/08/24 08:05:32;;;;;;;3.80;3.33;;;15.70;99.90;;;;;;5008196;28;20176;-79
2021/08/24 08:08:01;;;;;;;4.87;3.10;;;15.70;99.90;;;;;;4993813;28;20196;-80
2021/08/24 08:10:30;;;;;;;5.53;2.90;;;15.80;99.90;;;;;;4991627;28;20175;-79
2021/08/24 08:12:56;;;;;;;2.80;2.50;;;15.90;99.90;;;;;;4993786;28;20263;-79
2021/08/24 08:15:24;;;;;;;3.23;2.93;;;15.90;99.90;;;;;;5010035;28;20642;-80
2021/08/24 08:17:55;;;;;;;3.70;2.60;;;15.80;99.90;;;;;;5011046;28;20163;-80
2021/08/24 08:20:21;;;;;;;3.63;2.77;;;15.70;99.90;;;;;;5010789;28;20188;-80
2021/08/24 08:22:49;;;;;;;5.43;2.97;;;15.70;99.90;;;;;;5008353;28;20238;-79
2021/08/24 08:25:15;;;;;;;4.10;2.67;;;15.70;99.90;;;;;;4992300;28;20172;-80
2021/08/24 08:27:40;;;;;;;3.57;2.70;;;15.80;99.90;;;;;;5009133;28;20654;-80
2021/08/24 08:30:10;;;;;;;3.17;2.87;;;15.70;99.90;;;;;;5009575;28;20176;-80
2021/08/24 08:32:41;;;;;;;3.77;3.47;;;15.60;99.90;;;;;;4992287;28;20211;-80
2021/08/24 08:35:13;;;;;;;4.07;3.40;;;16.20;99.90;;;;;;5010259;28;20160;-81
2021/08/24 08:37:40;;;;;;;3.73;3.37;;;15.50;99.90;;;;;;5009369;28;20616;-80
2021/08/24 08:40:07;;;;;;;3.03;2.73;;;15.50;99.90;;;;;;5009589;28;20203;-79
2021/08/24 08:42:54;;;;;;;4.13;3.37;;;15.40;99.90;;;;;;5009752;28;20188;-79
2021/08/24 08:45:35;;;;;;;4.40;3.57;;;15.70;99.90;;;;;;4993618;28;20198;-79
2021/08/24 08:49:04;;;;;;;4.53;3.87;;;15.30;99.90;;;;;;5011023;28;20524;-80
2021/08/24 08:52:26;;;;;;;4.40;3.63;;;15.40;99.90;;;;;;4959640;28;20183;-79
2021/08/24 08:54:54;;;;;;;4.33;4.03;;;15.50;99.90;;;;;;4916365;29;20183;-80
2021/08/24 08:57:40;;;;;;;4.13;3.73;;;15.50;99.90;;;;;;4931289;29;20234;-80
2021/08/24 09:00:36;;;;;;;4.60;4.20;;;15.50;99.90;;;;;;4988924;28;20234;-79
2021/08/24 09:03:30;;;;;;;4.50;3.33;;;15.60;99.90;;;;;;5010514;28;20196;-80
2021/08/24 09:06:07;;;;;;;3.13;2.93;;;15.90;99.90;;;;;;4992506;28;20195;-80
2021/08/24 09:08:35;;;;;;;3.10;2.90;;;16.20;99.90;;;;;;5011498;28;20156;-80
2021/08/24 09:11:01;;;;;;;3.40;2.97;;;16.20;99.90;;;;;;5011173;28;20172;-79
2021/08/24 09:13:44;;;;;;;4.27;3.30;;;16.10;99.90;;;;;;4992946;28;20211;-80
2021/08/24 09:16:17;;;;;;;5.77;3.80;;;16.00;99.90;;;;;;4993103;28;20168;-80
2021/08/24 09:19:13;;;;;;;3.50;3.20;;;16.00;99.90;;;;;;5010794;28;20167;-81
2021/08/24 09:21:42;;;;;;;3.50;3.20;;;16.00;99.90;;;;;;5011349;28;20202;-80
2021/08/24 09:24:16;;;;;;;3.23;2.97;;;16.10;99.90;;;;;;5011325;28;20189;-81
2021/08/24 09:26:48;;;;;;;3.20;2.90;;;16.10;99.90;;;;;;5010404;28;20186;-80
2021/08/24 09:29:17;;;;;;;3.43;3.13;;;16.10;99.90;;;;;;4992924;28;20644;-80
2021/08/24 09:31:44;;;;;;;3.30;3.10;;;16.10;99.90;;;;;;5010572;28;20184;-80
2021/08/24 09:34:13;;;;;;;3.33;3.07;;;16.10;99.90;;;;;;5010176;28;20211;-80
2021/08/24 09:36:39;;;;;;;4.80;2.90;;;16.10;99.90;;;;;;5009914;28;20187;-80
2021/08/24 09:39:05;;;;;;;3.60;3.30;;;16.20;99.90;;;;;;5010333;28;20187;-80
2021/08/24 09:41:37;;;;;;;3.73;2.90;;;16.20;99.90;;;;;;5010328;28;20189;-80
2021/08/24 09:44:26;;;;;;;3.73;3.43;;;16.20;99.90;;;;;;5010274;28;20218;-80
2021/08/24 09:47:06;;;;;;;3.50;3.17;;;16.30;99.90;;;;;;5009299;28;20182;-80
2021/08/24 09:49:38;;;;;;;3.10;2.80;;;16.20;99.90;;;;;;4992161;28;20192;-79
2021/08/24 09:52:18;;;;;;;3.40;3.10;;;16.20;99.90;;;;;;4993354;28;20179;-80
2021/08/24 09:54:50;;;;;;;4.57;3.50;;;16.30;99.90;;;;;;4993591;28;20673;-80
2021/08/24 09:57:55;;;;;;;3.60;3.30;;;16.20;99.90;;;;;;4993889;28;20179;-79
2021/08/24 10:00:55;;;;;;;3.20;2.90;;;16.20;99.90;;;;;;4983256;28;20205;-81
2021/08/24 10:03:38;;;;;;;4.67;3.23;;;16.20;99.90;;;;;;5011527;28;20207;-80
2021/08/24 10:06:30;;;;;;;3.57;3.10;;;16.20;99.90;;;;;;5011674;28;20175;-80
2021/08/24 10:09:11;;;;;;;3.93;3.63;;;16.30;99.90;;;;;;4993387;28;20559;-79
2021/08/24 10:11:40;;;;;;;4.00;3.30;;;16.10;99.90;;;;;;4992443;28;20167;-78
2021/08/24 10:14:28;;;;;;;2.53;2.33;;;16.00;99.90;;;;;;5011219;28;20196;-79
2021/08/24 10:16:58;;;;;;;3.57;3.27;;;16.00;99.90;;;;;;5011622;28;20152;-80
2021/08/24 10:19:31;;;;;;;3.57;3.27;;;16.20;99.90;;;;;;4994394;28;20166;-80
2021/08/24 10:22:00;;;;;;;3.43;3.13;;;16.20;99.90;;;;;;5010411;28;20204;-79
2021/08/24 10:24:33;;;;;;;3.00;2.80;;;16.30;99.90;;;;;;5012349;28;20168;-79
2021/08/24 10:27:03;;;;;;;4.17;3.77;;;16.40;99.90;;;;;;5014918;28;20159;-79
2021/08/24 10:29:35;;;;;;;3.97;3.60;;;16.50;99.90;;;;;;5014263;28;20182;-79
2021/08/24 10:32:09;;;;;;;3.30;3.00;;;16.50;99.90;;;;;;4997481;28;20616;-79
2021/08/24 10:34:48;;;;;;;3.87;3.50;;;16.40;99.90;;;;;;5014200;28;20164;-79
2021/08/24 10:37:30;;;;;;;8.37;3.30;;;16.30;99.90;;;;;;5013770;28;20164;-78
2021/08/24 10:40:24;;;;;;;3.87;3.57;;;16.30;99.90;;;;;;5014360;28;20285;-80
2021/08/24 10:43:18;;;;;;;4.00;3.60;;;16.30;99.90;;;;;;5014096;28;20192;-79
2021/08/24 10:46:04;;;;;;;3.93;3.63;;;16.30;99.90;;;;;;4989430;28;20188;-79
2021/08/24 10:48:35;;;;;;;3.70;3.40;;;16.30;99.90;;;;;;4996849;28;20171;-81
2021/08/24 10:51:33;;;;;;;3.33;3.03;;;16.30;99.90;;;;;;4993760;28;20169;-78
2021/08/24 10:54:14;;;;;;;3.83;3.50;;;16.30;99.90;;;;;;4972039;28;20268;-80
2021/08/24 10:56:51;;;;;;;4.43;3.60;;;16.30;99.90;;;;;;5012249;28;20670;-80
2021/08/24 10:59:31;;;;;;;6.10;3.60;;;16.20;99.90;;;;;;5012259;28;20164;-80
2021/08/24 11:02:12;;;;;;;4.00;3.33;;;16.30;99.90;;;;;;5014164;28;20140;-80
2021/08/24 11:05:17;;;;;;;4.27;3.87;;;16.40;99.90;;;;;;5013884;28;20213;-80
2021/08/24 11:07:53;;;;;;;3.87;3.47;;;16.40;99.90;;;;;;5011779;28;20177;-80
2021/08/24 11:10:22;;;;;;;3.23;2.93;;;16.50;99.90;;;;;;5014296;28;20168;-80
2021/08/24 11:13:06;;;;;;;3.70;2.50;;;16.60;99.90;;;;;;5013736;28;20569;-79
2021/08/24 11:15:44;;;;;;;2.70;2.50;;;16.60;99.90;;;;;;5013807;28;20173;-79
2021/08/24 11:18:20;;;;;;;3.20;2.90;;;16.70;99.90;;;;;;5014064;28;20162;-80
2021/08/24 11:21:21;;;;;;;2.40;2.20;;;16.70;99.90;;;;;;5012652;28;20302;-80
2021/08/24 11:24:09;;;;;;;3.90;3.00;;;16.70;99.90;;;;;;5012714;28;20223;-80
2021/08/24 11:27:15;;;;;;;4.07;3.10;;;16.70;99.90;;;;;;5013878;28;20168;-80
2021/08/24 11:29:51;;;;;;;3.47;3.10;;;16.70;99.90;;;;;;5013470;28;20175;-79
2021/08/24 11:32:35;;;;;;;2.97;2.77;;;16.80;99.90;;;;;;5012876;28;20165;-81
2021/08/24 11:35:13;;;;;;;2.97;2.73;;;16.80;99.90;;;;;;5014267;28;20155;-80
2021/08/24 11:37:51;;;;;;;4.00;2.67;;;16.90;99.90;;;;;;5012611;28;20214;-80
2021/08/24 11:40:52;;;;;;;3.93;3.43;;;16.90;99.90;;;;;;5014432;28;20187;-81
2021/08/24 11:43:52;;;;;;;2.70;2.50;;;17.00;99.90;;;;;;5012847;28;20197;-80
2021/08/24 11:46:25;;;;;;;3.20;2.53;;;17.10;99.90;;;;;;5013291;28;20198;-81
2021/08/24 11:49:05;;;;;;;3.13;2.50;;;17.20;99.90;;;;;;5013917;28;20223;-80
2021/08/24 11:51:35;;;;;;;2.80;2.60;;;17.40;99.90;;;;;;5012961;28;20160;-81
2021/08/24 11:54:19;;;;;;;4.97;2.50;;;17.50;99.90;;;;;;5013404;28;20187;-79
2021/08/24 11:57:07;;;;;;;2.20;2.00;;;17.50;99.90;;;;;;5013041;28;20183;-79
2021/08/24 11:59:40;;;;;;;2.80;2.50;;;17.60;99.90;;;;;;5014051;28;20187;-80
2021/08/24 12:02:13;;;;;;;3.57;2.23;;;17.70;99.90;;;;;;5014379;28;20531;-80
2021/08/24 12:04:41;;;;;;;2.50;2.30;;;17.80;99.90;;;;;;5012503;28;20168;-79
2021/08/24 12:07:15;;;;;;;2.97;2.60;;;17.80;99.90;;;;;;5013594;28;20530;-80
2021/08/24 12:09:54;;;;;;;2.43;2.03;;;17.80;99.90;;;;;;5010706;28;20177;-80
2021/08/24 12:12:31;;;;;;;2.40;2.20;;;17.80;99.90;;;;;;5013119;28;20577;-80
2021/08/24 12:14:59;;;;;;;2.53;2.33;;;18.00;99.90;;;;;;4996222;28;20171;-80
2021/08/24 12:17:28;;;;;;;2.77;2.57;;;18.00;99.90;;;;;;5013444;28;20182;-79
2021/08/24 12:20:00;;;;;;;2.70;2.50;;;18.00;99.90;;;;;;5013932;28;20295;-80
2021/08/24 12:22:36;;;;;;;4.47;2.60;;;17.90;99.90;;;;;;5013564;28;20191;-80
2021/08/24 12:25:10;;;;;;;5.37;4.83;;;17.90;99.90;;;;;;5012894;28;20164;-79
2021/08/24 12:28:07;;;;;;;3.70;3.40;;;17.60;99.90;;;;;;5012454;28;20215;-80
2021/08/24 12:30:56;;;;;;;2.80;2.60;;;17.60;99.90;;;;;;5013603;28;20161;-80
2021/08/24 12:33:37;;;;;;;2.50;2.30;;;17.50;99.90;;;;;;5012338;23;20631;-80
2021/08/24 12:36:21;;;;;;;2.73;2.30;;;17.50;99.90;;;;;;4959506;28;20180;-80
2021/08/24 12:38:54;;;;;;;2.40;2.20;;;17.50;99.90;;;;;;4959091;28;20544;-80
2021/08/24 12:41:35;;;;;;;2.80;2.50;;;17.50;99.90;;;;;;4975987;28;20222;-82
2021/08/24 12:44:12;;;;;;;3.10;2.80;;;17.50;99.90;;;;;;4976172;28;20196;-80
2021/08/24 12:46:50;;;;;;;2.67;2.47;;;17.70;99.90;;;;;;4977003;28;20180;-80
2021/08/24 12:49:16;;;;;;;2.87;2.67;;;17.80;99.90;;;;;;4976903;28;20583;-80
2021/08/24 12:51:45;;;;;;;3.10;2.33;;;17.80;99.90;;;;;;4976885;28;20187;-80
2021/08/24 12:54:12;;;;;;;3.10;2.80;;;17.80;99.90;;;;;;4977353;28;20195;-81
2021/08/24 12:57:09;;;;;;;2.83;2.63;;;17.90;99.90;;;;;;4960302;29;20275;-82
2021/08/24 12:59:38;;;;;;;2.87;2.67;;;17.80;99.90;;;;;;4949039;29;20177;-81
2021/08/24 13:02:21;;;;;;;4.70;3.10;;;17.90;99.90;;;;;;4964806;29;20177;-83
2021/08/24 13:04:50;;;;;;;3.00;2.80;;;17.90;99.90;;;;;;4961286;29;20272;-83
2021/08/24 13:07:21;;;;;;;3.33;3.03;;;17.90;99.90;;;;;;4944264;29;20172;-82
2021/08/24 13:09:53;;;;;;;2.80;2.60;;;18.00;99.90;;;;;;4943618;29;20173;-82
2021/08/24 13:12:37;;;;;;;3.53;3.23;;;18.00;99.90;;;;;;4960144;29;20263;-82
2021/08/24 13:15:25;;;;;;;3.17;2.87;;;17.90;99.90;;;;;;4943487;29;20293;-84
2021/08/24 13:17:59;;;;;;;3.07;2.50;;;17.80;99.90;;;;;;4941887;29;20220;-82